• Join FlightAware (Why Join?)
  • Login
  • US Flag 
03:33AM EDT


 

Airport Tracker/Info


-or-


 

Live Flight TrackerFlight Track Log ✈ AWE1940 ✈ 25-Apr-2013 ✈ KCLT - KALB

Flight Track Log - Related Links

Times and Time Zones

All times are in EDT time to prevent confusion due to time zone crossing. See the AWE1940 flight status page for this flight to view local times or setup timezone preferences in your user account.

Time Position Orientation Groundspeed Altitude Reporting Facility
EDT Latitude Longitude Course Direction KTS MPH feet Rate Location/Type
11:25PM 35.1911 -80.9508 72° East 164 189 1,600  Level Atlanta Center
11:26PM 35.1469 -80.9347 163° South 207 238 3,100 2,100 Climbing Atlanta Center
11:28PM 35.1511 -80.5993 29° Northeast  Level FlightAware Approximate
11:28PM 35.1833 -80.8039 71° East 292 336 7,400  Level Atlanta Center
11:29PM 35.2599 -80.5239 30° Northeast  Level FlightAware Approximate
11:29PM 35.2164 -80.7161 65° Northeast 292 336 10,000  Level Atlanta Center
11:30PM 35.3423 -80.4329 72° East  Level FlightAware Approximate
11:30PM 35.2553 -80.6128 65° Northeast 315 362 12,000  Level Atlanta Center
11:31PM 35.3807 -80.2871 72° East  Level FlightAware Approximate
11:33PM 35.3586 -80.3394 65° Northeast 370 426 17,700  Level Washington Center
11:34PM 35.4053 -80.2147 65° Northeast 396 456 19,000 1,560 Climbing Washington Center
11:35PM 35.4481 -80.0769 69° East 416 479 20,900 1,800 Climbing Washington Center
11:36PM 35.4872 -79.9208 73° East 423 487 22,600 1,560 Climbing Washington Center
11:37PM 35.5281 -79.7675 72° East 447 514 24,100 1,440 Climbing Washington Center
11:38PM 35.5689 -79.6114 72° East 460 529 25,500 1,260 Climbing Washington Center
11:39PM 35.6072 -79.4675 72° East 483 556 26,700 1,260 Climbing Washington Center
11:40PM 35.6689 -79.2967 66° East 488 562 28,100 1,320 Climbing Washington Center
11:41PM 35.7642 -79.1808 45° Northeast 470 541 29,400 1,260 Climbing Washington Center
11:42PM 35.8694 -79.0806 38° Northeast 470 541 30,700 1,260 Climbing Washington Center
11:43PM 35.9747 -78.9775 38° Northeast 471 542 32,000 1,200 Climbing Washington Center
11:44PM 36.0775 -78.8789 38° Northeast 471 542 33,100 1,200 Climbing Washington Center
11:45PM 36.1825 -78.7778 38° Northeast 471 542 34,400 1,200 Climbing Washington Center
11:46PM 36.2833 -78.6764 39° Northeast 471 542 35,600 840 Climbing Washington Center
11:47PM 36.3858 -78.5772 38° Northeast 471 542 36,100 480 Climbing Washington Center
11:48PM 36.5397 -78.4253 38° Northeast 482 555 37,000 300 Climbing Washington Center
11:49PM 36.6444 -78.3203 39° Northeast 477 549 37,000  Level Washington Center
11:50PM 36.7597 -78.2025 39° Northeast 477 549 37,000  Level Washington Center
11:51PM 36.8664 -78.0972 38° Northeast 477 549 37,000  Level Washington Center
11:52PM 36.9750 -77.9864 39° Northeast 477 549 37,000  Level Washington Center
11:53PM 37.0814 -77.8803 38° Northeast 482 555 37,000  Level Washington Center
11:54PM 37.1856 -77.7739 39° Northeast 482 555 37,000 -60 Level Washington Center
11:55PM 37.2897 -77.6672 39° Northeast 477 549 36,900  Descending Washington Center
11:56PM 37.3958 -77.5603 39° Northeast 477 549 37,000  Climbing Washington Center
11:57PM 37.5019 -77.4531 39° Northeast 477 549 37,000  Level Washington Center
11:59PM 37.6263 -77.3348 37° Northeast  Level FlightAware Approximate
11:59PM 37.7114 -77.2350 37° Northeast 483 556 37,000  Level Washington Center
12:00AM 37.8172 -77.1244 40° Northeast 483 556 37,000  Level Washington Center
12:01AM 37.9228 -77.0133 40° Northeast 476 548 37,000  Level Washington Center
12:02AM 38.0306 -76.9019 39° Northeast 483 556 37,000  Level Washington Center
12:03AM 38.1339 -76.7928 40° Northeast 483 556 37,000  Level Washington Center
12:04AM 38.2392 -76.6836 39° Northeast 483 556 37,000  Level Washington Center
12:05AM 38.3339 -76.5842 39° Northeast 476 548 37,000  Level Washington Center
12:06AM 38.4389 -76.4717 40° Northeast 481 554 37,000  Level Washington Center
12:07AM 38.5439 -76.3589 40° Northeast 481 554 37,000  Level Washington Center
12:08AM 38.6508 -76.2483 39° Northeast 481 554 37,000  Level Washington Center
12:09AM 38.7517 -76.1428 39° Northeast 494 568 37,000  Level Washington Center
12:10AM 38.8667 -76.0208 40° Northeast 494 568 37,000  Level Washington Center
12:11AM 38.9858 -75.8908 40° Northeast 499 574 37,000  Level Washington Center
12:12AM 39.0800 -75.7867 41° Northeast 499 574 37,000  Level Washington Center
12:13AM 39.1989 -75.6558 40° Northeast 507 583 37,000  Level Washington Center
12:14AM 39.2947 -75.5539 39° Northeast 507 583 37,000  Level Washington Center
12:15AM 39.4114 -75.4222 41° Northeast 507 583 37,000  Level Washington Center
12:16AM 39.5050 -75.3200 40° Northeast 507 583 37,000 -60 Level Washington Center
12:17AM 39.6025 -75.2117 41° Northeast 502 578 36,900  Descending Washington Center
12:19AM 39.7853 -75.0094 40° Northeast 506 582 37,000  Climbing New York Center
12:20AM 39.8917 -74.8886 41° Northeast 499 574 37,000  Level New York Center
12:21AM 39.9978 -74.7703 40° Northeast 504 580 37,000 -60 Level New York Center
12:22AM 40.1039 -74.6517 41° Northeast 498 573 36,900 -600 Descending New York Center
12:23AM 40.2081 -74.5297 42° Northeast 498 573 35,900 -1,020 Descending New York Center
12:24AM 40.3158 -74.4075 41° Northeast 503 579 34,900 -960 Descending New York Center
12:25AM 40.4239 -74.2825 41° Northeast 503 579 34,000 -2,520 Descending New York Center
12:27AM 40.6661 -74.0078 41° Northeast 518 596 27,100 -3,060 Descending Boston Center
12:28AM 40.7761 -73.8817 41° Northeast 523 602 24,300 -1,560 Descending Boston Center
12:29AM 40.8775 -73.7578 43° Northeast 507 583 24,000 -180 Descending Boston Center
12:30AM 40.9892 -73.6528 35° Northeast 502 578 24,000  Level Boston Center
12:31AM 41.1267 -73.6525 360° North 462 532 24,000 -120 Level Boston Center
12:32AM 41.2558 -73.6689 355° North 456 525 23,800 -840 Descending Boston Center
12:33AM 41.3828 -73.6822 355° North 456 525 22,400 -2,100 Descending Boston Center
12:34AM 41.5119 -73.6986 355° North 461 531 19,700 -2,400 Descending Boston Center
12:35AM 41.6408 -73.7150 355° North 450 518 17,600 -2,220 Descending Boston Center
12:36AM 41.7575 -73.7258 356° North 429 494 15,300 -2,100 Descending Boston Center
12:37AM 41.8678 -73.7419 354° North 408 470 13,500 -1,800 Descending Boston Center
12:38AM 41.9758 -73.7553 355° North 395 455 11,700 -1,260 Descending Boston Center
12:39AM 42.0781 -73.7631 357° North 368 423 11,000 -360 Descending Boston Center
12:40AM 42.1592 -73.7733 355° North 342 394 11,000 -720 Level Boston Center
12:41AM 42.2486 -73.7808 356° North 297 342 9,600 -1,500 Descending Boston Center
12:42AM 42.3194 -73.7850 358° North 284 327 8,000 -1,620 Descending Boston Center
12:43AM 42.4069 -73.7869 359° North 284 327 6,400 -1,800 Descending Boston Center
12:44AM 42.4944 -73.7944 356° North 272 313 4,100 -1,860 Descending Boston Center
12:45AM 42.5569 -73.7958 359° North 269 310 2,700 -840 Descending Boston Center
12:46AM 42.6194 -73.8028 355° North 251 289 2,600 -420 Descending Boston Center
12:47AM 42.6631 -73.8039 359° North 244 281 1,900 -900 Descending Boston Center
12:48AM 42.7194 -73.8078 357° North 129 148 700 -1,020 Descending Boston Center